createdAt,value
2023-05-21T00:01:07.129Z,100188.09
2023-05-21T00:03:36.206Z,100186.03
2023-05-21T00:06:04.040Z,100183.88
2023-05-21T00:08:31.097Z,100176.03
2023-05-21T00:10:58.186Z,100173.06
2023-05-21T00:13:25.105Z,100178.19
2023-05-21T00:15:51.863Z,100170.53
2023-05-21T00:18:18.521Z,100161.56
2023-05-21T00:20:45.767Z,100166.25
2023-05-21T00:23:12.736Z,100166.69
2023-05-21T00:25:39.462Z,100168.25
2023-05-21T00:28:06.071Z,100162.50
2023-05-21T00:30:32.671Z,100158.53
2023-05-21T00:33:02.497Z,100160.16
2023-05-21T00:35:29.713Z,100164.13
2023-05-21T00:37:56.371Z,100159.06
2023-05-21T00:40:23.254Z,100155.81
2023-05-21T00:42:49.934Z,100151.75
2023-05-21T00:45:16.707Z,100149.88
2023-05-21T00:47:43.908Z,100156.31
2023-05-21T00:50:11.830Z,100136.50
2023-05-21T00:52:42.158Z,100149.56
2023-05-21T00:55:09.996Z,100139.94
2023-05-21T00:57:39.300Z,100133.69
2023-05-21T01:00:08.793Z,100144.44
2023-05-21T01:02:37.316Z,100132.00
2023-05-21T01:05:08.211Z,100129.66
2023-05-21T01:07:36.506Z,100127.13
2023-05-21T01:10:07.931Z,100131.44
2023-05-21T01:12:35.592Z,100133.94
2023-05-21T01:15:04.035Z,100129.97
2023-05-21T01:17:31.868Z,100136.38
2023-05-21T01:19:59.194Z,100135.19
2023-05-21T01:22:29.001Z,100125.50
2023-05-21T01:24:56.792Z,100125.34
2023-05-21T01:27:23.512Z,100121.38
2023-05-21T01:29:50.363Z,100123.66
2023-05-21T01:32:44.214Z,100120.25
2023-05-21T01:35:18.842Z,100121.78
2023-05-21T01:37:52.273Z,100111.13
2023-05-21T01:40:30.107Z,100111.09
2023-05-21T01:42:57.286Z,100108.41
2023-05-21T01:45:25.297Z,100105.78
2023-05-21T01:47:54.155Z,100111.94
2023-05-21T01:50:22.875Z,100112.50
2023-05-21T01:52:54.856Z,100109.91
2023-05-21T01:55:28.198Z,100102.34
2023-05-21T01:57:55.841Z,100103.53
2023-05-21T02:00:24.586Z,100101.44
2023-05-21T02:02:51.952Z,100099.47
2023-05-21T02:05:18.914Z,100105.06
2023-05-21T02:07:47.902Z,100101.91
2023-05-21T02:10:14.510Z,100096.69
2023-05-21T02:12:41.938Z,100096.75
2023-05-21T02:15:09.274Z,100096.84
2023-05-21T02:17:38.167Z,100103.31
2023-05-21T02:20:11.776Z,100097.66
2023-05-21T02:22:43.910Z,100099.91
2023-05-21T02:25:12.026Z,100097.56
2023-05-21T02:27:39.608Z,100093.44
2023-05-21T02:30:08.564Z,100095.34
2023-05-21T02:32:35.623Z,100096.41
2023-05-21T02:35:03.812Z,100093.97
2023-05-21T02:37:33.938Z,100084.31
2023-05-21T02:40:01.797Z,100092.34
2023-05-21T02:42:28.385Z,100092.16
2023-05-21T02:44:55.048Z,100095.25
2023-05-21T02:47:23.635Z,100090.09
2023-05-21T02:49:51.504Z,100092.91
2023-05-21T02:52:19.734Z,100094.78
2023-05-21T02:54:46.953Z,100084.72
2023-05-21T02:57:13.757Z,100087.69
2023-05-21T02:59:40.661Z,100083.81
2023-05-21T03:02:07.522Z,100086.44
2023-05-21T03:04:38.806Z,100080.75
2023-05-21T03:07:06.167Z,100080.22
2023-05-21T03:09:32.699Z,100074.78
2023-05-21T03:11:59.200Z,100078.41
2023-05-21T03:14:26.464Z,100076.31
2023-05-21T03:16:53.075Z,100077.47
2023-05-21T03:19:20.944Z,100082.66
2023-05-21T03:21:49.058Z,100078.09
2023-05-21T03:24:15.608Z,100077.25
2023-05-21T03:26:42.323Z,100077.59
2023-05-21T03:29:09.004Z,100076.56
2023-05-21T03:31:35.937Z,100081.25
2023-05-21T03:34:02.480Z,100085.31
2023-05-21T03:36:29.129Z,100075.81
2023-05-21T03:38:56.049Z,100073.84
2023-05-21T03:41:22.628Z,100078.81
2023-05-21T03:43:49.237Z,100077.72
2023-05-21T03:46:15.972Z,100081.41
2023-05-21T03:48:42.609Z,100083.81
2023-05-21T03:51:09.608Z,100090.03
2023-05-21T03:53:37.052Z,100085.69
2023-05-21T03:56:03.664Z,100084.06
2023-05-21T03:58:30.283Z,100095.72
2023-05-21T04:00:56.826Z,100081.13
2023-05-21T04:03:23.528Z,100088.78
2023-05-21T04:05:50.181Z,100093.66
2023-05-21T04:08:16.852Z,100084.69
2023-05-21T04:10:43.628Z,100087.97
2023-05-21T04:13:10.513Z,100083.56
2023-05-21T04:15:38.665Z,100084.38
2023-05-21T04:18:07.280Z,100091.81
2023-05-21T04:20:33.953Z,100083.38
2023-05-21T04:23:01.381Z,100090.41
2023-05-21T04:25:28.551Z,100089.00
2023-05-21T04:27:55.242Z,100095.09
2023-05-21T04:30:22.059Z,100088.56
2023-05-21T04:32:48.886Z,100091.03
2023-05-21T04:35:15.601Z,100095.75
2023-05-21T04:37:42.424Z,100097.44
2023-05-21T04:40:09.841Z,100091.38
2023-05-21T04:42:36.723Z,100099.53
2023-05-21T04:45:03.666Z,100102.53
2023-05-21T04:47:30.359Z,100094.06
2023-05-21T04:49:57.317Z,100102.69
2023-05-21T04:52:25.104Z,100101.34
2023-05-21T04:54:51.838Z,100098.06
2023-05-21T04:57:19.130Z,100091.50
2023-05-21T04:59:46.985Z,100092.16
2023-05-21T05:02:13.653Z,100101.44
2023-05-21T05:04:40.463Z,100085.50
2023-05-21T05:07:07.523Z,100092.72
2023-05-21T05:09:34.060Z,100087.22
2023-05-21T05:12:00.924Z,100089.88
2023-05-21T05:14:27.676Z,100084.75
2023-05-21T05:16:54.701Z,100093.97
2023-05-21T05:19:21.454Z,100091.91
2023-05-21T05:21:48.142Z,100090.53
2023-05-21T05:24:16.200Z,100081.31
2023-05-21T05:26:42.896Z,100087.91
2023-05-21T05:29:09.828Z,100081.47
2023-05-21T05:31:36.379Z,100084.16
2023-05-21T05:34:02.949Z,100068.22
2023-05-21T05:36:29.782Z,100075.22
2023-05-21T05:38:56.392Z,100085.16
2023-05-21T05:41:23.180Z,100070.31
2023-05-21T05:43:49.913Z,100063.34
2023-05-21T05:46:16.642Z,100075.63
2023-05-21T05:48:43.509Z,100071.78
2023-05-21T05:51:11.910Z,100068.03
2023-05-21T05:53:38.736Z,100074.06
2023-05-21T05:56:05.929Z,100074.09
2023-05-21T05:58:32.770Z,100069.25
2023-05-21T06:01:00.599Z,100061.75
2023-05-21T06:03:28.222Z,100066.53
2023-05-21T06:05:55.379Z,100061.66
2023-05-21T06:08:21.938Z,100067.31
2023-05-21T06:10:48.677Z,100061.63
2023-05-21T06:13:15.218Z,100064.09
2023-05-21T06:15:44.704Z,100077.44
2023-05-21T06:18:11.707Z,100073.97
2023-05-21T06:20:38.559Z,100081.19
2023-05-21T06:23:06.476Z,100067.38
2023-05-21T06:25:33.102Z,100064.34
2023-05-21T06:27:59.690Z,100073.47
2023-05-21T06:30:26.838Z,100072.47
2023-05-21T06:32:53.611Z,100075.97
2023-05-21T06:35:20.503Z,100069.09
2023-05-21T06:37:48.650Z,100069.47
2023-05-21T06:40:15.548Z,100072.09
2023-05-21T06:42:42.083Z,100070.34
2023-05-21T06:45:09.157Z,100077.28
2023-05-21T06:47:35.940Z,100069.66
2023-05-21T06:50:02.633Z,100075.88
2023-05-21T06:52:31.655Z,100077.66
2023-05-21T06:54:58.515Z,100082.63
2023-05-21T06:57:25.038Z,100078.72
2023-05-21T06:59:51.639Z,100071.34
2023-05-21T07:02:18.257Z,100080.50
2023-05-21T07:04:45.130Z,100080.94
2023-05-21T07:07:11.913Z,100077.56
2023-05-21T07:09:38.552Z,100078.50
2023-05-21T07:12:05.559Z,100079.41
2023-05-21T07:14:32.254Z,100079.44
2023-05-21T07:16:59.057Z,100078.63
2023-05-21T07:19:25.712Z,100078.88
2023-05-21T07:21:52.646Z,100083.59
2023-05-21T07:24:19.306Z,100073.16
2023-05-21T07:26:46.080Z,100075.50
2023-05-21T07:29:12.577Z,100075.13
2023-05-21T07:31:39.422Z,100077.72
2023-05-21T07:34:06.056Z,100070.81
2023-05-21T07:36:33.795Z,100060.88
2023-05-21T07:39:00.939Z,100061.34
2023-05-21T07:41:27.471Z,100064.88
2023-05-21T07:43:54.127Z,100069.50
2023-05-21T07:46:20.859Z,100072.53
2023-05-21T07:48:48.419Z,100084.56
2023-05-21T07:51:16.560Z,100072.81
2023-05-21T07:53:43.079Z,100072.34
2023-05-21T07:56:09.967Z,100074.84
2023-05-21T07:58:36.536Z,100074.88
2023-05-21T08:01:03.152Z,100072.88
2023-05-21T08:03:33.009Z,100074.75
2023-05-21T08:06:00.005Z,100072.97
2023-05-21T08:08:26.701Z,100080.03
2023-05-21T08:10:53.286Z,100074.47
2023-05-21T08:13:20.178Z,100071.25
2023-05-21T08:15:47.101Z,100077.81
2023-05-21T08:18:13.755Z,100079.56
2023-05-21T08:20:41.348Z,100085.56
2023-05-21T08:23:07.923Z,100081.75
2023-05-21T08:25:34.972Z,100080.97
2023-05-21T08:28:01.620Z,100077.91
2023-05-21T08:30:28.356Z,100081.28
2023-05-21T08:32:55.316Z,100075.38
2023-05-21T08:35:22.100Z,100085.25
2023-05-21T08:37:48.664Z,100083.78
2023-05-21T08:40:15.672Z,100075.94
2023-05-21T08:42:47.402Z,100075.88
2023-05-21T08:45:18.525Z,100078.34
2023-05-21T08:47:45.235Z,100077.19
2023-05-21T08:50:13.792Z,100083.25
2023-05-21T08:52:41.139Z,100082.16
2023-05-21T08:55:08.983Z,100074.06
2023-05-21T08:57:36.634Z,100086.44
2023-05-21T09:00:06.346Z,100081.72
2023-05-21T09:02:40.533Z,100082.94
2023-05-21T09:05:09.313Z,100089.31
2023-05-21T09:08:02.493Z,100079.88
2023-05-21T09:10:34.746Z,100083.66
2023-05-21T09:13:02.688Z,100078.28
2023-05-21T09:15:29.794Z,100072.16
2023-05-21T09:17:56.527Z,100074.16
2023-05-21T09:20:27.322Z,100070.25
2023-05-21T09:22:55.387Z,100075.66
2023-05-21T09:25:25.186Z,100069.09
2023-05-21T09:27:51.707Z,100068.28
2023-05-21T09:30:21.023Z,100067.94
2023-05-21T09:32:56.336Z,100065.09
2023-05-21T09:35:23.151Z,100066.97
2023-05-21T09:37:52.402Z,100076.63
2023-05-21T09:40:21.602Z,100071.00
2023-05-21T09:42:53.352Z,100065.53
2023-05-21T09:45:21.591Z,100070.06
2023-05-21T09:47:50.280Z,100065.81
2023-05-21T09:50:27.874Z,100061.66
2023-05-21T09:52:55.603Z,100058.41
2023-05-21T09:55:23.467Z,100053.69
2023-05-21T09:57:51.051Z,100055.63
2023-05-21T10:00:23.298Z,100056.94
2023-05-21T10:02:54.157Z,100050.41
2023-05-21T10:05:21.350Z,100048.91
2023-05-21T10:07:51.326Z,100054.47
2023-05-21T10:10:21.102Z,100050.19
2023-05-21T10:12:48.793Z,100051.34
2023-05-21T10:15:17.377Z,100050.53
2023-05-21T10:17:44.595Z,100047.06
2023-05-21T10:20:12.509Z,100052.31
2023-05-21T10:22:39.995Z,100045.03
2023-05-21T10:25:07.947Z,100049.09
2023-05-21T10:27:37.658Z,100057.72
2023-05-21T10:30:05.867Z,100062.72
2023-05-21T10:32:33.394Z,100055.72
2023-05-21T10:35:02.008Z,100055.63
2023-05-21T10:37:29.277Z,100059.34
2023-05-21T10:39:56.585Z,100057.16
2023-05-21T10:42:32.564Z,100052.81
2023-05-21T10:45:07.896Z,100046.19
2023-05-21T10:48:12.580Z,100047.84
2023-05-21T10:51:08.221Z,100043.50
2023-05-21T10:53:44.194Z,100036.03
2023-05-21T10:56:29.567Z,100037.63
2023-05-21T10:59:26.780Z,100030.84
2023-05-21T11:01:54.169Z,100032.91
2023-05-21T11:04:27.013Z,100033.38
2023-05-21T11:06:53.604Z,100029.53
2023-05-21T11:09:20.454Z,100031.31
2023-05-21T11:11:58.145Z,100024.72
2023-05-21T11:14:39.143Z,100013.63
2023-05-21T11:17:40.225Z,100016.03
2023-05-21T11:20:14.278Z,100019.88
2023-05-21T11:22:41.158Z,100022.72
2023-05-21T11:25:08.412Z,100019.00
2023-05-21T11:27:38.741Z,100013.09
2023-05-21T11:30:09.828Z,100014.69
2023-05-21T11:32:41.175Z,100011.03
2023-05-21T11:35:08.168Z,100008.66
2023-05-21T11:37:35.109Z,100005.53
2023-05-21T11:40:25.668Z,100011.34
2023-05-21T11:42:53.835Z,100004.63
2023-05-21T11:45:22.333Z,100011.94
2023-05-21T11:47:50.084Z,100011.94
2023-05-21T11:50:17.622Z,100011.19
2023-05-21T11:52:44.801Z,99999.41
2023-05-21T11:55:11.559Z,100007.59
2023-05-21T11:57:41.732Z,100012.56
2023-05-21T12:00:15.289Z,100017.16
2023-05-21T12:02:51.247Z,100015.38
2023-05-21T12:05:18.350Z,100009.09
2023-05-21T12:07:50.029Z,100009.47
2023-05-21T12:10:17.208Z,100016.47
2023-05-21T12:12:54.697Z,100010.47
2023-05-21T12:15:25.034Z,100014.31
2023-05-21T12:17:53.197Z,100009.28
2023-05-21T12:20:28.545Z,100009.34
2023-05-21T12:22:57.063Z,99999.75
2023-05-21T12:25:23.927Z,99994.44
2023-05-21T12:27:58.764Z,99996.97
2023-05-21T12:30:26.076Z,99999.81
2023-05-21T12:32:52.779Z,100005.84
2023-05-21T12:35:23.840Z,99994.47
2023-05-21T12:37:51.114Z,100000.94
2023-05-21T12:40:18.280Z,100005.13
2023-05-21T12:42:45.295Z,99999.06
2023-05-21T12:45:12.614Z,99986.25
2023-05-21T12:47:39.288Z,99986.78
2023-05-21T12:50:11.853Z,99989.91
2023-05-21T12:52:40.542Z,99988.88
2023-05-21T12:55:09.544Z,99988.78
2023-05-21T12:57:38.720Z,99983.59
2023-05-21T13:00:07.014Z,99982.16
2023-05-21T13:02:35.852Z,99977.38
2023-05-21T13:05:04.562Z,99960.91
2023-05-21T13:07:32.961Z,99970.19
2023-05-21T13:10:01.095Z,99969.16
2023-05-21T13:12:29.757Z,99981.41
2023-05-21T13:15:01.553Z,99976.53
2023-05-21T13:17:28.746Z,99964.38
2023-05-21T13:20:12.732Z,99961.72
2023-05-21T13:22:43.857Z,99966.78
2023-05-21T13:25:11.739Z,99965.56
2023-05-21T13:27:39.579Z,99959.94
2023-05-21T13:30:07.083Z,99950.50
2023-05-21T13:32:34.465Z,99955.03
2023-05-21T13:35:01.584Z,99950.41
2023-05-21T13:37:28.261Z,99951.66
2023-05-21T13:39:54.866Z,99954.81
2023-05-21T13:42:21.489Z,99961.44
2023-05-21T13:44:48.677Z,99952.72
2023-05-21T13:47:15.673Z,99942.78
2023-05-21T13:49:42.869Z,99940.56
2023-05-21T13:52:10.109Z,99934.81
2023-05-21T13:54:36.827Z,99937.31
2023-05-21T13:57:03.919Z,99939.44
2023-05-21T13:59:33.260Z,99940.56
2023-05-21T14:02:00.852Z,99937.75
2023-05-21T14:04:28.061Z,99938.84
2023-05-21T14:06:54.897Z,99940.13
2023-05-21T14:09:23.333Z,99938.84
2023-05-21T14:11:50.182Z,99934.50
2023-05-21T14:14:19.071Z,99925.09
2023-05-21T14:16:47.148Z,99933.03
2023-05-21T14:19:14.442Z,99928.22
2023-05-21T14:21:41.824Z,99927.13
2023-05-21T14:24:08.591Z,99933.34
2023-05-21T14:26:42.648Z,99924.41
2023-05-21T14:29:09.800Z,99924.72
2023-05-21T14:31:36.647Z,99933.31
2023-05-21T14:34:03.661Z,99925.41
2023-05-21T14:36:30.217Z,99925.84
2023-05-21T14:38:56.810Z,99928.91
2023-05-21T14:41:27.190Z,99926.03
2023-05-21T14:43:54.763Z,99922.34
2023-05-21T14:46:22.382Z,99927.16
2023-05-21T14:48:49.212Z,99924.28
2023-05-21T14:51:16.020Z,99916.94
2023-05-21T14:53:42.751Z,99926.50
2023-05-21T14:56:09.580Z,99938.56
2023-05-21T14:58:36.226Z,99924.75
2023-05-21T15:01:04.272Z,99920.22
2023-05-21T15:03:31.157Z,99929.19
2023-05-21T15:05:58.576Z,99924.56
2023-05-21T15:08:25.392Z,99925.69
2023-05-21T15:10:51.998Z,99911.28
2023-05-21T15:13:18.878Z,99920.03
2023-05-21T15:15:45.507Z,99916.59
2023-05-21T15:18:12.186Z,99916.50
2023-05-21T15:20:39.110Z,99909.28
2023-05-21T15:23:16.198Z,99918.88
2023-05-21T15:25:44.785Z,99917.53
2023-05-21T15:28:14.676Z,99909.91
2023-05-21T15:30:41.375Z,99918.13
2023-05-21T15:33:08.616Z,99914.09
2023-05-21T15:35:36.352Z,99903.06
2023-05-21T15:38:03.409Z,99905.44
2023-05-21T15:40:30.066Z,99904.13
2023-05-21T15:42:56.538Z,99909.66
2023-05-21T15:45:24.879Z,99891.97
2023-05-21T15:47:51.540Z,99900.38
2023-05-21T15:50:18.271Z,99889.38
2023-05-21T15:52:44.755Z,99897.91
2023-05-21T15:55:11.435Z,99893.16
2023-05-21T15:57:38.053Z,99894.47
2023-05-21T16:00:05.049Z,99891.78
2023-05-21T16:02:31.998Z,99891.31
2023-05-21T16:04:59.076Z,99887.53
2023-05-21T16:07:25.841Z,99890.06
2023-05-21T16:09:52.538Z,99886.97
2023-05-21T16:12:19.440Z,99876.34
2023-05-21T16:14:49.765Z,99890.97
2023-05-21T16:17:16.659Z,99885.00
2023-05-21T16:19:43.494Z,99880.44
2023-05-21T16:22:10.970Z,99883.53
2023-05-21T16:24:37.915Z,99888.25
2023-05-21T16:27:05.004Z,99873.00
2023-05-21T16:29:31.970Z,99870.00
2023-05-21T16:31:58.688Z,99871.53
2023-05-21T16:34:25.640Z,99875.84
2023-05-21T16:36:52.340Z,99879.16
2023-05-21T16:39:19.030Z,99874.47
2023-05-21T16:41:45.698Z,99876.94
2023-05-21T16:44:12.582Z,99881.53
2023-05-21T16:46:39.636Z,99875.75
2023-05-21T16:49:07.147Z,99880.19
2023-05-21T16:51:34.179Z,99868.97
2023-05-21T16:54:02.386Z,99870.25
2023-05-21T16:56:29.246Z,99868.59
2023-05-21T16:58:56.140Z,99871.91
2023-05-21T17:01:22.890Z,99876.00
2023-05-21T17:03:49.659Z,99880.44
2023-05-21T17:06:16.222Z,99883.53
2023-05-21T17:08:42.862Z,99880.91
2023-05-21T17:11:10.079Z,99877.38
2023-05-21T17:13:36.691Z,99874.84
2023-05-21T17:16:03.364Z,99879.28
2023-05-21T17:18:31.256Z,99878.56
2023-05-21T17:20:58.870Z,99880.72
2023-05-21T17:23:25.839Z,99878.56
2023-05-21T17:25:52.625Z,99870.56
2023-05-21T17:28:19.432Z,99881.16
2023-05-21T17:30:48.675Z,99879.84
2023-05-21T17:33:16.176Z,99879.72
2023-05-21T17:35:42.944Z,99882.69
2023-05-21T17:38:10.346Z,99876.66
2023-05-21T17:40:36.905Z,99885.22
2023-05-21T17:43:04.581Z,99879.91
2023-05-21T17:45:31.443Z,99873.84
2023-05-21T17:47:59.974Z,99882.69
2023-05-21T17:50:27.304Z,99885.53
2023-05-21T17:52:53.885Z,99880.13
2023-05-21T17:55:20.740Z,99882.25
2023-05-21T17:57:47.229Z,99894.09
2023-05-21T18:00:14.283Z,99888.13
2023-05-21T18:02:41.380Z,99891.41
2023-05-21T18:05:08.164Z,99896.97
2023-05-21T18:07:34.708Z,99899.13
2023-05-21T18:10:01.774Z,99891.75
2023-05-21T18:12:28.399Z,99897.06
2023-05-21T18:14:55.315Z,99891.25
2023-05-21T18:17:22.334Z,99896.94
2023-05-21T18:19:48.951Z,99904.91
2023-05-21T18:22:15.558Z,99908.28
2023-05-21T18:24:42.678Z,99910.47
2023-05-21T18:27:09.119Z,99910.03
2023-05-21T18:29:36.708Z,99916.22
2023-05-21T18:32:04.129Z,99914.16
2023-05-21T18:34:30.753Z,99916.16
2023-05-21T18:36:58.760Z,99913.78
2023-05-21T18:39:27.121Z,99907.53
2023-05-21T18:42:08.907Z,99910.59
2023-05-21T18:44:39.178Z,99920.44
2023-05-21T18:47:07.580Z,99910.38
2023-05-21T18:49:35.733Z,99917.63
2023-05-21T18:52:02.485Z,99912.94
2023-05-21T18:54:29.008Z,99918.66
2023-05-21T18:56:59.535Z,99909.41
2023-05-21T18:59:27.156Z,99914.53
2023-05-21T19:01:54.538Z,99914.09
2023-05-21T19:04:21.471Z,99917.53
2023-05-21T19:06:48.238Z,99917.53
2023-05-21T19:09:15.101Z,99925.47
2023-05-21T19:11:41.870Z,99927.94
2023-05-21T19:14:08.636Z,99928.81
2023-05-21T19:16:35.540Z,99922.09
2023-05-21T19:19:03.327Z,99921.59
2023-05-21T19:21:30.066Z,99924.50
2023-05-21T19:23:56.867Z,99919.84
2023-05-21T19:26:24.221Z,99924.44
2023-05-21T19:28:53.692Z,99932.16
2023-05-21T19:31:21.112Z,99928.66
2023-05-21T19:33:48.271Z,99922.66
2023-05-21T19:36:15.289Z,99923.94
2023-05-21T19:38:49.255Z,99928.13
2023-05-21T19:41:19.857Z,99933.59
2023-05-21T19:43:46.486Z,99935.66
2023-05-21T19:46:15.971Z,99933.25
2023-05-21T19:48:44.827Z,99938.47
2023-05-21T19:51:11.460Z,99938.25
2023-05-21T19:53:38.282Z,99937.53
2023-05-21T19:56:04.821Z,99931.19
2023-05-21T19:58:31.505Z,99930.00
2023-05-21T20:00:59.309Z,99936.06
2023-05-21T20:03:26.853Z,99938.59
2023-05-21T20:05:53.846Z,99935.09
2023-05-21T20:08:20.780Z,99932.78
2023-05-21T20:10:50.337Z,99933.44
2023-05-21T20:13:18.037Z,99944.84
2023-05-21T20:15:44.683Z,99931.09
2023-05-21T20:18:12.661Z,99930.22
2023-05-21T20:20:40.915Z,99921.38
2023-05-21T20:23:07.795Z,99920.22
2023-05-21T20:25:34.316Z,99922.25
2023-05-21T20:28:05.046Z,99923.38
2023-05-21T20:30:33.185Z,99923.78
2023-05-21T20:33:03.212Z,99922.28
2023-05-21T20:35:30.159Z,99926.47
2023-05-21T20:37:56.672Z,99930.59
2023-05-21T20:40:23.255Z,99927.41
2023-05-21T20:42:53.389Z,99935.94
2023-05-21T20:45:21.125Z,99936.81
2023-05-21T20:47:48.277Z,99926.84
2023-05-21T20:50:17.423Z,99929.72
2023-05-21T20:52:46.903Z,99933.41
2023-05-21T20:55:14.597Z,99936.28
2023-05-21T20:57:41.875Z,99933.47
2023-05-21T21:00:10.935Z,99933.94
2023-05-21T21:02:39.684Z,99924.69
2023-05-21T21:05:10.542Z,99929.94
2023-05-21T21:07:37.333Z,99934.81
2023-05-21T21:10:04.384Z,99934.81
2023-05-21T21:12:31.258Z,99935.25
2023-05-21T21:14:57.794Z,99931.22
2023-05-21T21:17:24.921Z,99938.88
2023-05-21T21:19:51.493Z,99940.09
2023-05-21T21:22:18.577Z,99940.50
2023-05-21T21:24:45.566Z,99944.97
2023-05-21T21:27:12.280Z,99937.72
2023-05-21T21:29:38.806Z,99940.56
2023-05-21T21:32:06.155Z,99935.72
2023-05-21T21:34:32.601Z,99940.94
2023-05-21T21:36:59.013Z,99943.78
2023-05-21T21:39:26.814Z,99943.38
2023-05-21T21:41:53.416Z,99945.41
2023-05-21T21:44:19.996Z,99940.97
2023-05-21T21:46:46.799Z,99943.78
2023-05-21T21:49:14.404Z,99941.38
2023-05-21T21:51:41.015Z,99936.56
2023-05-21T21:54:07.434Z,99938.13
2023-05-21T21:56:33.946Z,99938.53
2023-05-21T21:59:00.522Z,99940.53
2023-05-21T22:01:27.933Z,99941.34
2023-05-21T22:03:54.439Z,99942.13
2023-05-21T22:06:20.990Z,99951.78
2023-05-21T22:08:47.653Z,99942.13
2023-05-21T22:11:14.323Z,99945.31
2023-05-21T22:13:41.758Z,99948.13
2023-05-21T22:16:08.282Z,99945.31
2023-05-21T22:18:41.013Z,99944.03
2023-05-21T22:21:09.180Z,99942.81
2023-05-21T22:23:36.669Z,99948.81
2023-05-21T22:26:03.520Z,99946.78
2023-05-21T22:28:30.003Z,99946.78
2023-05-21T22:30:56.492Z,99930.69
2023-05-21T22:33:23.009Z,99937.91
2023-05-21T22:35:49.567Z,99929.47
2023-05-21T22:38:16.055Z,99930.69
2023-05-21T22:40:42.469Z,99928.66
2023-05-21T22:43:08.918Z,99929.84
2023-05-21T22:45:38.222Z,99929.84
2023-05-21T22:48:08.479Z,99929.03
2023-05-21T22:50:35.238Z,99927.81
2023-05-21T22:53:01.805Z,99930.63
2023-05-21T22:55:28.231Z,99920.59
2023-05-21T22:57:54.679Z,99931.44
2023-05-21T23:00:21.298Z,99937.03
2023-05-21T23:02:48.189Z,99929.81
2023-05-21T23:05:15.067Z,99935.03
2023-05-21T23:07:42.768Z,99937.44
2023-05-21T23:10:09.556Z,99930.97
2023-05-21T23:12:36.909Z,99936.56
2023-05-21T23:15:04.956Z,99926.13
2023-05-21T23:17:32.199Z,99926.91
2023-05-21T23:19:59.516Z,99928.09
2023-05-21T23:22:26.381Z,99928.88
2023-05-21T23:24:54.296Z,99929.63
2023-05-21T23:27:21.244Z,99927.63
2023-05-21T23:29:47.968Z,99920.78
2023-05-21T23:32:14.881Z,99925.19
2023-05-21T23:34:41.955Z,99929.97
2023-05-21T23:37:08.641Z,99921.47
2023-05-21T23:39:35.285Z,99926.66
2023-05-21T23:42:02.117Z,99925.03
2023-05-21T23:44:28.943Z,99925.44
2023-05-21T23:46:55.767Z,99926.97
2023-05-21T23:49:22.658Z,99926.13
2023-05-21T23:51:52.302Z,99927.25
2023-05-21T23:54:19.275Z,99929.19
2023-05-21T23:56:46.472Z,99923.94
2023-05-21T23:59:15.672Z,99928.81
